Etusivu
METAR-TAF:

METAR-TAF

Lentoasemat :

Bric della Croce

Torino, Italia

Leveyspiiri: 45-02N, Pituuspiiri: 007-44E, korkeus merenpinnasta: 709 m

Tämänhetkinen sää

Tämä raportti tehtiin 31 minuuttia sitten, kello 05.55 UTC
Tuuli 3 kn etelästä/lounaasta
Lämpötila 15°C
Kosteus 100%
Ilmanpaine 1020 hPa
Näkyvyys: 6000 m

METAR: LIMK 210555Z 21003KT 6000 NSC 15/15 Q1020 RMK SKC VAL FOSCHIA SKC SUP VIS MIN 6000

Aika: 08:26 (06:26 UTC)


TAF: puuttuu

Säähavainnot ja -ennusteet yli 4000 lentoasemalta (METAR- ja TAF-raportit).

Käytössä olevat sääasemat on merkitty karttaan keltaisilla ja punaisilla pisteillä.

Aseta hiiri pisteen päälle nähdäksesi sääaseman nimen.

Klikkaa sitten nähdäksesi säähavainnot ja -ennusteet.

Kartan vaihtaminen: klikkaa mustalla rastilla varustettuja vihreitä pisteitä, niin voit zoomata sisään; viivalla varustettua vihreää pistettä, niin voit zoomata ulos tai vihreitä nuolia, niin pääset viereisille kartoille.


METAR-TAF: